createdAt,value
2017-11-29T00:00:01.642Z,88.00
2017-11-29T00:02:29.992Z,88.10
2017-11-29T00:04:57.554Z,88.00
2017-11-29T00:07:25.112Z,88.10
2017-11-29T00:09:52.684Z,87.70
2017-11-29T00:12:21.010Z,87.80
2017-11-29T00:14:48.565Z,87.80
2017-11-29T00:17:16.150Z,87.80
2017-11-29T00:19:43.711Z,87.90
2017-11-29T00:22:11.260Z,88.00
2017-11-29T00:24:38.843Z,88.90
2017-11-29T00:27:06.474Z,88.00
2017-11-29T00:29:34.043Z,88.20
2017-11-29T00:32:02.381Z,87.90
2017-11-29T00:34:29.919Z,87.90
2017-11-29T00:36:57.490Z,88.40
2017-11-29T00:39:25.038Z,88.00
2017-11-29T00:41:52.601Z,88.00
2017-11-29T00:44:20.181Z,88.10
2017-11-29T00:46:47.750Z,88.00
2017-11-29T00:49:16.083Z,88.40
2017-11-29T00:51:43.650Z,88.40
2017-11-29T00:54:11.211Z,88.80
2017-11-29T00:56:38.782Z,88.80
2017-11-29T00:59:06.369Z,88.70
2017-11-29T01:01:34.699Z,88.70
2017-11-29T01:04:02.268Z,88.70
2017-11-29T01:06:29.803Z,88.70
2017-11-29T01:08:57.360Z,89.10
2017-11-29T01:11:25.816Z,88.90
2017-11-29T01:13:53.429Z,89.30
2017-11-29T01:16:21.085Z,89.10
2017-11-29T01:18:48.637Z,89.00
2017-11-29T01:21:16.201Z,89.10
2017-11-29T01:23:44.332Z,89.40
2017-11-29T01:26:11.881Z,89.20
2017-11-29T01:28:39.444Z,89.10
2017-11-29T01:31:06.984Z,89.30
2017-11-29T01:33:34.550Z,89.20
2017-11-29T01:36:02.109Z,88.60
2017-11-29T01:38:30.414Z,89.60
2017-11-29T01:40:57.978Z,89.60
2017-11-29T01:43:26.331Z,89.20
2017-11-29T01:45:53.886Z,89.20
2017-11-29T01:48:21.526Z,89.40
2017-11-29T01:50:50.031Z,89.30
2017-11-29T01:53:17.607Z,89.40
2017-11-29T01:55:45.947Z,89.80
2017-11-29T01:58:13.490Z,89.80
2017-11-29T02:00:49.103Z,89.80
2017-11-29T02:03:16.657Z,89.80
2017-11-29T02:05:44.259Z,90.10
2017-11-29T02:08:15.441Z,89.40
2017-11-29T02:10:43.006Z,89.40
2017-11-29T02:13:10.595Z,89.60
2017-11-29T02:15:38.189Z,89.70
2017-11-29T02:18:06.509Z,89.80
2017-11-29T02:20:34.875Z,90.00
2017-11-29T02:23:02.421Z,90.00
2017-11-29T02:25:29.990Z,90.50
2017-11-29T02:27:57.570Z,90.30
2017-11-29T02:30:25.685Z,90.40
2017-11-29T02:32:53.237Z,90.30
2017-11-29T02:35:20.835Z,90.60
2017-11-29T02:37:48.399Z,90.30
2017-11-29T02:40:27.904Z,90.40
2017-11-29T02:42:55.459Z,90.50
2017-11-29T02:45:23.051Z,90.70
2017-11-29T02:47:50.602Z,90.60
2017-11-29T02:50:18.176Z,90.60
2017-11-29T02:52:45.747Z,90.60
2017-11-29T02:55:13.462Z,90.70
2017-11-29T02:57:40.996Z,90.70
2017-11-29T03:00:09.310Z,90.60
2017-11-29T03:02:36.882Z,90.60
2017-11-29T03:05:04.423Z,90.70
2017-11-29T03:07:31.990Z,90.70
2017-11-29T03:09:59.532Z,90.70
2017-11-29T03:12:27.097Z,90.80
2017-11-29T03:14:54.639Z,90.90
2017-11-29T03:17:22.213Z,90.90
2017-11-29T03:19:49.775Z,90.90
2017-11-29T03:22:17.334Z,90.80
2017-11-29T03:24:44.902Z,90.90
2017-11-29T03:27:12.465Z,91.00
2017-11-29T03:29:40.014Z,90.70
2017-11-29T03:32:07.588Z,90.60
2017-11-29T03:34:35.130Z,90.70
2017-11-29T03:37:02.723Z,90.70
2017-11-29T03:39:30.286Z,90.90
2017-11-29T03:41:57.857Z,91.00
2017-11-29T03:44:25.434Z,91.00
2017-11-29T03:46:54.642Z,91.10
2017-11-29T03:49:22.964Z,91.20
2017-11-29T03:51:50.521Z,91.30
2017-11-29T03:54:18.080Z,91.30
2017-11-29T03:56:45.621Z,91.20
2017-11-29T03:59:13.321Z,91.30
2017-11-29T04:01:40.901Z,91.40
2017-11-29T04:04:08.459Z,91.20
2017-11-29T04:06:36.018Z,91.10
2017-11-29T04:09:03.586Z,91.10
2017-11-29T04:11:31.178Z,91.10
2017-11-29T04:13:59.503Z,91.00
2017-11-29T04:16:27.069Z,91.00
2017-11-29T04:18:54.651Z,91.20
2017-11-29T04:21:22.202Z,91.10
2017-11-29T04:23:49.765Z,91.10
2017-11-29T04:26:18.533Z,91.10
2017-11-29T04:28:46.102Z,91.10
2017-11-29T04:31:13.644Z,91.30
2017-11-29T04:33:42.218Z,91.30
2017-11-29T04:36:09.795Z,91.20
2017-11-29T04:38:37.370Z,91.30
2017-11-29T04:41:04.927Z,91.20
2017-11-29T04:43:32.531Z,91.10
2017-11-29T04:46:00.070Z,91.00
2017-11-29T04:48:28.276Z,91.10
2017-11-29T04:50:55.810Z,91.20
2017-11-29T04:53:23.372Z,91.30
2017-11-29T04:55:50.915Z,91.20
2017-11-29T04:58:19.242Z,91.50
2017-11-29T05:00:46.822Z,91.50
2017-11-29T05:03:15.143Z,91.40
2017-11-29T05:05:42.754Z,91.40
2017-11-29T05:08:11.073Z,91.40
2017-11-29T05:10:38.689Z,91.30
2017-11-29T05:13:07.039Z,91.40
2017-11-29T05:15:34.619Z,91.40
2017-11-29T05:18:02.182Z,91.40
2017-11-29T05:20:30.527Z,91.10
2017-11-29T05:22:58.073Z,91.10
2017-11-29T05:25:25.643Z,91.10
2017-11-29T05:27:53.962Z,91.40
2017-11-29T05:30:21.538Z,91.30
2017-11-29T05:32:49.130Z,91.40
2017-11-29T05:35:16.733Z,91.40
2017-11-29T05:37:44.302Z,91.30
2017-11-29T05:40:11.878Z,91.10
2017-11-29T05:42:39.450Z,91.50
2017-11-29T05:45:07.794Z,91.20
2017-11-29T05:47:35.381Z,91.20
2017-11-29T05:50:02.966Z,91.20
2017-11-29T05:52:30.542Z,91.40
2017-11-29T05:54:58.117Z,91.40
2017-11-29T05:57:26.464Z,91.50
2017-11-29T05:59:55.423Z,91.50
2017-11-29T06:02:23.015Z,91.50
2017-11-29T06:04:51.380Z,91.70
2017-11-29T06:07:18.944Z,91.70
2017-11-29T06:09:46.523Z,92.00
2017-11-29T06:12:14.861Z,92.00
2017-11-29T06:14:42.512Z,92.00
2017-11-29T06:17:10.074Z,92.00
2017-11-29T06:19:37.663Z,91.90
2017-11-29T06:22:06.010Z,91.90
2017-11-29T06:24:33.579Z,92.20
2017-11-29T06:27:01.940Z,92.00
2017-11-29T06:29:29.552Z,92.00
2017-11-29T06:31:57.995Z,92.20
2017-11-29T06:34:25.697Z,92.20
2017-11-29T06:36:53.247Z,92.10
2017-11-29T06:39:20.874Z,92.20
2017-11-29T06:41:48.699Z,92.30
2017-11-29T06:44:16.275Z,92.20
2017-11-29T06:46:44.626Z,92.60
2017-11-29T06:49:12.299Z,92.60
2017-11-29T06:51:40.630Z,92.50
2017-11-29T06:54:08.234Z,92.50
2017-11-29T06:56:35.843Z,92.60
2017-11-29T06:59:03.445Z,92.40
2017-11-29T07:01:31.567Z,91.90
2017-11-29T07:03:59.116Z,91.90
2017-11-29T07:06:27.464Z,92.00
2017-11-29T07:08:55.030Z,91.90
2017-11-29T07:11:23.390Z,92.10
2017-11-29T07:13:50.982Z,92.10
2017-11-29T07:16:18.558Z,92.20
2017-11-29T07:18:46.118Z,92.30
2017-11-29T07:21:13.662Z,92.30
2017-11-29T07:23:41.985Z,92.40
2017-11-29T07:26:10.114Z,92.40
2017-11-29T07:28:37.673Z,92.40
2017-11-29T07:31:05.200Z,92.20
2017-11-29T07:33:33.561Z,92.50
2017-11-29T07:36:01.892Z,92.50
2017-11-29T07:38:30.311Z,92.50
2017-11-29T07:40:57.875Z,92.30
2017-11-29T07:43:25.451Z,92.30
2017-11-29T07:45:53.004Z,92.40
2017-11-29T07:48:20.667Z,92.40
2017-11-29T07:50:48.241Z,92.50
2017-11-29T07:53:15.799Z,92.80
2017-11-29T07:55:43.371Z,92.50
2017-11-29T07:58:10.929Z,92.60
2017-11-29T08:00:38.487Z,92.80
2017-11-29T08:03:06.058Z,92.70
2017-11-29T08:05:33.628Z,92.70
2017-11-29T08:08:01.183Z,92.70
2017-11-29T08:10:28.773Z,92.70
2017-11-29T08:12:56.344Z,92.50
2017-11-29T08:15:23.962Z,92.60
2017-11-29T08:17:51.548Z,92.50
2017-11-29T08:20:19.119Z,92.60
2017-11-29T08:22:46.683Z,92.60
2017-11-29T08:25:14.306Z,92.50
2017-11-29T08:27:41.878Z,92.30
2017-11-29T08:30:09.455Z,92.30
2017-11-29T08:32:37.015Z,92.40
2017-11-29T08:35:04.582Z,92.40
2017-11-29T08:37:32.153Z,92.50
2017-11-29T08:40:00.493Z,92.60
2017-11-29T08:42:28.083Z,92.60
2017-11-29T08:44:55.641Z,92.70
2017-11-29T08:47:23.692Z,92.50
2017-11-29T08:49:51.264Z,92.40
2017-11-29T08:52:31.635Z,92.30
2017-11-29T08:54:59.219Z,92.50
2017-11-29T08:57:26.825Z,92.30
2017-11-29T08:59:54.423Z,92.10
2017-11-29T09:02:21.997Z,92.50
2017-11-29T09:04:49.647Z,91.80
2017-11-29T09:07:17.271Z,91.80
2017-11-29T09:09:45.606Z,91.70
2017-11-29T09:12:13.200Z,91.70
2017-11-29T09:14:41.564Z,91.80
2017-11-29T09:17:09.898Z,92.00
2017-11-29T09:19:38.015Z,92.00
2017-11-29T09:22:05.626Z,91.80
2017-11-29T09:24:33.174Z,91.70
2017-11-29T09:27:01.568Z,91.60
2017-11-29T09:29:29.967Z,91.10
2017-11-29T09:31:57.592Z,90.80
2017-11-29T09:34:25.188Z,90.70
2017-11-29T09:36:52.786Z,90.50
2017-11-29T09:39:20.399Z,90.20
2017-11-29T09:41:47.994Z,90.10
2017-11-29T09:44:15.626Z,89.60
2017-11-29T09:46:44.038Z,89.70
2017-11-29T09:49:11.620Z,89.70
2017-11-29T09:51:39.241Z,89.40
2017-11-29T09:54:06.795Z,89.30
2017-11-29T09:56:34.377Z,88.60
2017-11-29T09:59:03.665Z,89.80
2017-11-29T10:01:31.236Z,90.00
2017-11-29T10:03:58.925Z,89.70
2017-11-29T10:06:27.250Z,87.20
2017-11-29T10:08:54.838Z,87.10
2017-11-29T10:11:22.427Z,88.00
2017-11-29T10:13:51.194Z,88.10
2017-11-29T10:16:18.755Z,88.50
2017-11-29T10:18:46.313Z,87.80
2017-11-29T10:21:13.909Z,88.30
2017-11-29T10:23:42.255Z,86.70
2017-11-29T10:26:12.083Z,87.10
2017-11-29T10:31:32.552Z,86.40
2017-11-29T10:34:00.208Z,85.90
2017-11-29T10:36:27.818Z,85.80
2017-11-29T10:38:56.154Z,85.00
2017-11-29T10:41:23.764Z,85.00
2017-11-29T10:43:51.384Z,86.10
2017-11-29T10:46:18.984Z,85.20
2017-11-29T10:48:47.319Z,85.60
2017-11-29T10:51:14.986Z,85.50
2017-11-29T10:53:44.441Z,84.00
2017-11-29T10:56:12.035Z,84.00
2017-11-29T10:58:40.420Z,82.20
2017-11-29T11:01:08.003Z,82.20
2017-11-29T11:03:35.552Z,81.00
2017-11-29T11:06:03.689Z,82.30
2017-11-29T11:08:32.042Z,81.30
2017-11-29T11:11:00.467Z,81.10
2017-11-29T11:13:28.024Z,80.90
2017-11-29T11:15:55.592Z,81.20
2017-11-29T11:18:23.943Z,81.10
2017-11-29T11:20:51.502Z,81.00
2017-11-29T11:23:19.185Z,78.90
2017-11-29T11:25:46.802Z,78.50
2017-11-29T11:28:15.137Z,78.80
2017-11-29T11:30:42.727Z,78.80
2017-11-29T11:33:11.293Z,80.20
2017-11-29T11:35:39.794Z,80.20
2017-11-29T11:38:07.386Z,80.20
2017-11-29T11:40:34.950Z,80.00
2017-11-29T11:43:03.309Z,78.60
2017-11-29T11:45:31.648Z,79.00
2017-11-29T11:48:05.635Z,78.40
2017-11-29T11:50:33.449Z,78.30
2017-11-29T11:53:01.303Z,77.40
2017-11-29T11:55:29.103Z,77.80
2017-11-29T11:57:59.002Z,78.20
2017-11-29T12:00:26.569Z,78.80
2017-11-29T12:02:54.229Z,79.40
2017-11-29T12:05:23.542Z,77.30
2017-11-29T12:07:51.093Z,77.20
2017-11-29T12:10:19.777Z,77.20
2017-11-29T12:12:47.338Z,76.40
2017-11-29T12:15:14.920Z,76.30
2017-11-29T12:17:43.266Z,77.00
2017-11-29T12:20:10.864Z,77.00
2017-11-29T12:22:38.436Z,77.30
2017-11-29T12:25:05.995Z,76.80
2017-11-29T12:27:33.563Z,76.60
2017-11-29T12:30:01.164Z,77.20
2017-11-29T12:32:28.758Z,77.80
2017-11-29T12:34:57.105Z,78.90
2017-11-29T12:37:24.648Z,78.80
2017-11-29T12:39:52.243Z,78.90
2017-11-29T12:42:19.785Z,79.40
2017-11-29T12:44:47.359Z,79.70
2017-11-29T12:47:14.933Z,79.30
2017-11-29T12:49:55.008Z,78.00
2017-11-29T12:52:22.594Z,78.00
2017-11-29T12:54:50.176Z,77.80
2017-11-29T12:57:17.974Z,78.30
2017-11-29T12:59:45.552Z,77.50
2017-11-29T13:02:13.922Z,75.00
2017-11-29T13:04:42.233Z,74.60
2017-11-29T13:07:09.828Z,74.60
2017-11-29T13:09:39.107Z,74.10
2017-11-29T13:12:06.735Z,73.40
2017-11-29T13:14:34.286Z,73.50
2017-11-29T13:17:01.858Z,73.20
2017-11-29T13:19:29.438Z,71.60
2017-11-29T13:21:57.023Z,72.80
2017-11-29T13:24:24.607Z,72.80
2017-11-29T13:26:52.964Z,73.70
2017-11-29T13:29:20.553Z,73.80
2017-11-29T13:31:48.120Z,72.80
2017-11-29T13:34:15.738Z,72.40
2017-11-29T13:36:43.320Z,72.30
2017-11-29T13:39:10.883Z,71.00
2017-11-29T13:41:38.459Z,72.40
2017-11-29T13:44:06.821Z,73.30
2017-11-29T13:46:34.674Z,73.30
2017-11-29T13:49:03.037Z,73.10
2017-11-29T13:51:31.623Z,73.30
2017-11-29T13:53:59.211Z,73.20
2017-11-29T13:56:26.784Z,73.10
2017-11-29T13:58:55.153Z,75.10
2017-11-29T14:01:22.721Z,76.00
2017-11-29T14:03:51.040Z,76.10
2017-11-29T14:06:18.584Z,76.10
2017-11-29T14:08:46.127Z,75.70
2017-11-29T14:11:13.671Z,75.40
2017-11-29T14:13:41.242Z,73.60
2017-11-29T14:16:08.819Z,73.80
2017-11-29T14:18:36.389Z,74.20
2017-11-29T14:21:03.993Z,77.30
2017-11-29T14:23:32.313Z,74.30
2017-11-29T14:25:59.913Z,74.30
2017-11-29T14:28:27.509Z,73.90
2017-11-29T14:30:55.353Z,74.20
2017-11-29T14:33:22.918Z,75.00
2017-11-29T14:35:51.253Z,76.90
2017-11-29T14:38:19.615Z,77.20
2017-11-29T14:40:47.324Z,77.10
2017-11-29T14:43:15.792Z,75.90
2017-11-29T14:45:43.378Z,76.90
2017-11-29T14:48:12.105Z,77.20
2017-11-29T14:50:39.679Z,77.20
2017-11-29T14:53:07.271Z,77.50
2017-11-29T14:55:34.903Z,77.80
2017-11-29T14:58:02.497Z,78.30
2017-11-29T15:00:30.067Z,78.10
2017-11-29T15:02:57.642Z,77.90
2017-11-29T15:05:25.205Z,78.20
2017-11-29T15:07:52.810Z,79.30
2017-11-29T15:10:20.383Z,79.30
2017-11-29T15:12:47.969Z,79.60
2017-11-29T15:15:16.326Z,80.10
2017-11-29T15:17:44.665Z,79.90
2017-11-29T15:20:13.088Z,79.80
2017-11-29T15:22:40.664Z,80.00
2017-11-29T15:25:08.272Z,81.20
2017-11-29T15:27:35.865Z,82.70
2017-11-29T15:30:03.489Z,84.20
2017-11-29T15:32:31.113Z,85.40
2017-11-29T15:34:58.714Z,86.20
2017-11-29T15:37:26.277Z,87.40
2017-11-29T15:39:53.867Z,87.60
2017-11-29T15:42:21.426Z,87.50
2017-11-29T15:44:49.155Z,87.20
2017-11-29T15:47:16.815Z,87.40
2017-11-29T15:49:45.513Z,87.60
2017-11-29T15:52:13.106Z,87.60
2017-11-29T15:54:40.688Z,88.20
2017-11-29T15:57:10.233Z,88.60
2017-11-29T15:59:37.810Z,88.60
2017-11-29T16:02:05.450Z,88.50
2017-11-29T16:04:33.030Z,88.60
2017-11-29T16:07:01.383Z,88.70
2017-11-29T16:09:29.713Z,88.80
2017-11-29T16:11:57.290Z,88.80
2017-11-29T16:14:24.925Z,88.40
2017-11-29T16:16:52.502Z,89.40
2017-11-29T16:19:20.289Z,88.60
2017-11-29T16:21:47.889Z,89.20
2017-11-29T16:24:15.517Z,89.30
2017-11-29T16:26:43.164Z,89.40
2017-11-29T16:29:10.814Z,89.20
2017-11-29T16:31:38.469Z,89.40
2017-11-29T16:34:06.060Z,89.40
2017-11-29T16:36:33.680Z,90.00
2017-11-29T16:39:02.534Z,89.00
2017-11-29T16:41:30.968Z,89.60
2017-11-29T16:43:58.560Z,89.60
2017-11-29T16:46:26.269Z,89.70
2017-11-29T16:48:55.657Z,89.60
2017-11-29T16:51:23.283Z,89.60
2017-11-29T16:53:52.441Z,89.80
2017-11-29T16:56:20.737Z,89.70
2017-11-29T16:58:48.516Z,90.00
2017-11-29T17:01:16.181Z,90.10
2017-11-29T17:03:44.577Z,90.10
2017-11-29T17:06:12.159Z,90.00
2017-11-29T17:08:40.645Z,90.40
2017-11-29T17:11:08.254Z,90.30
2017-11-29T17:13:36.699Z,90.30
2017-11-29T17:16:04.884Z,90.30
2017-11-29T17:18:32.470Z,90.30
2017-11-29T17:21:00.904Z,90.20
2017-11-29T17:23:28.975Z,90.20
2017-11-29T17:25:57.684Z,90.10
2017-11-29T17:28:26.058Z,90.00
2017-11-29T17:30:53.763Z,90.00
2017-11-29T17:33:21.510Z,89.80
2017-11-29T17:35:49.110Z,89.60
2017-11-29T17:38:16.703Z,89.40
2017-11-29T17:40:44.334Z,89.60
2017-11-29T17:43:13.831Z,90.00
2017-11-29T17:45:42.777Z,90.10
2017-11-29T17:48:10.371Z,90.10
2017-11-29T17:50:38.710Z,90.00
2017-11-29T17:53:06.281Z,90.00
2017-11-29T17:55:33.854Z,90.20
2017-11-29T17:58:01.406Z,90.10
2017-11-29T18:00:28.994Z,90.20
2017-11-29T18:02:57.579Z,90.30
2017-11-29T18:05:27.116Z,90.30
2017-11-29T18:07:54.689Z,90.30
2017-11-29T18:10:22.252Z,90.20
2017-11-29T18:12:50.619Z,90.10
2017-11-29T18:15:19.559Z,90.00
2017-11-29T18:17:47.154Z,90.00
2017-11-29T18:20:14.729Z,90.30
2017-11-29T18:22:43.063Z,90.50
2017-11-29T18:25:10.642Z,90.50
2017-11-29T18:27:38.228Z,90.40
2017-11-29T18:30:06.601Z,90.60
2017-11-29T18:32:34.975Z,90.70
2017-11-29T18:35:02.572Z,90.70
2017-11-29T18:37:30.157Z,90.60
2017-11-29T18:39:58.537Z,90.90
2017-11-29T18:42:26.132Z,90.90
2017-11-29T18:44:53.856Z,90.90
2017-11-29T18:47:21.524Z,91.00
2017-11-29T18:49:49.085Z,91.30
2017-11-29T18:52:16.658Z,91.50
2017-11-29T18:54:44.219Z,91.50
2017-11-29T18:57:11.790Z,91.50
2017-11-29T18:59:39.357Z,91.40
2017-11-29T19:02:06.927Z,91.40
2017-11-29T19:04:34.494Z,91.30
2017-11-29T19:07:02.089Z,91.20
2017-11-29T19:09:29.648Z,91.20
2017-11-29T19:11:57.281Z,91.20
2017-11-29T19:14:24.903Z,91.00
2017-11-29T19:16:52.727Z,91.00
2017-11-29T19:19:21.528Z,91.00
2017-11-29T19:21:49.488Z,91.00
2017-11-29T19:24:18.333Z,90.90
2017-11-29T19:26:46.282Z,90.90
2017-11-29T19:29:14.269Z,91.10
2017-11-29T19:31:42.147Z,91.10
2017-11-29T19:34:10.899Z,91.20
2017-11-29T19:36:39.371Z,91.20
2017-11-29T19:39:07.350Z,91.20
2017-11-29T19:41:35.215Z,91.20
2017-11-29T19:44:03.107Z,91.30
2017-11-29T19:46:30.985Z,91.20
2017-11-29T19:48:59.046Z,91.30
2017-11-29T19:51:26.989Z,91.40
2017-11-29T19:53:55.647Z,91.50
2017-11-29T19:56:23.526Z,91.50
2017-11-29T19:58:51.467Z,91.40
2017-11-29T20:01:19.321Z,91.30
2017-11-29T20:03:48.056Z,91.10
2017-11-29T20:06:15.955Z,91.10
2017-11-29T20:08:43.860Z,90.90
2017-11-29T20:11:12.519Z,91.00
2017-11-29T20:13:40.428Z,90.90
2017-11-29T20:16:08.321Z,91.20
2017-11-29T20:18:36.230Z,91.40
2017-11-29T20:21:04.849Z,91.60
2017-11-29T20:23:33.567Z,91.80
2017-11-29T20:26:01.454Z,91.80
2017-11-29T20:28:30.117Z,92.20
2017-11-29T20:31:01.314Z,92.20
2017-11-29T20:33:29.142Z,92.30
2017-11-29T20:35:56.809Z,92.40
2017-11-29T20:38:24.401Z,92.40
2017-11-29T20:40:53.053Z,92.40
2017-11-29T20:43:23.820Z,92.40
2017-11-29T20:45:55.209Z,92.30
2017-11-29T20:48:23.787Z,92.20
2017-11-29T20:50:51.470Z,92.40
2017-11-29T20:53:19.535Z,92.10
2017-11-29T20:55:48.271Z,92.20
2017-11-29T20:58:15.895Z,92.10
2017-11-29T21:00:43.982Z,92.30
2017-11-29T21:03:13.000Z,92.10
2017-11-29T21:05:41.711Z,92.10
2017-11-29T21:08:09.952Z,92.10
2017-11-29T21:10:37.735Z,92.00
2017-11-29T21:13:05.614Z,91.90
2017-11-29T21:15:33.335Z,91.80
2017-11-29T21:18:00.922Z,92.00
2017-11-29T21:20:28.483Z,92.10
2017-11-29T21:22:56.080Z,92.10
2017-11-29T21:25:23.651Z,92.20
2017-11-29T21:27:52.145Z,92.30
2017-11-29T21:30:19.701Z,92.30
2017-11-29T21:32:48.426Z,92.20
2017-11-29T21:35:15.995Z,92.10
2017-11-29T21:37:43.591Z,91.90
2017-11-29T21:40:12.117Z,91.80
2017-11-29T21:42:39.705Z,91.90
2017-11-29T21:45:07.301Z,91.70
2017-11-29T21:47:34.867Z,91.60
2017-11-29T21:50:03.214Z,91.60
2017-11-29T21:52:31.549Z,91.50
2017-11-29T21:54:59.137Z,91.40
2017-11-29T21:57:27.473Z,91.60
2017-11-29T21:59:55.058Z,91.60
2017-11-29T22:02:22.630Z,91.60
2017-11-29T22:04:50.197Z,91.50
2017-11-29T22:07:17.763Z,91.40
2017-11-29T22:09:46.134Z,91.70
2017-11-29T22:12:14.476Z,91.40
2017-11-29T22:14:42.053Z,91.40
2017-11-29T22:17:09.647Z,91.40
2017-11-29T22:19:37.239Z,91.40
2017-11-29T22:22:04.817Z,91.60
2017-11-29T22:24:32.428Z,91.60
2017-11-29T22:27:00.031Z,91.60
2017-11-29T22:29:27.605Z,91.80
2017-11-29T22:31:55.970Z,91.90
2017-11-29T22:34:23.556Z,91.90
2017-11-29T22:36:51.131Z,92.00
2017-11-29T22:39:18.704Z,92.00
2017-11-29T22:41:47.921Z,92.10
2017-11-29T22:44:15.599Z,92.10
2017-11-29T22:46:43.187Z,92.10
2017-11-29T22:49:10.788Z,92.00
2017-11-29T22:51:38.389Z,92.00
2017-11-29T22:54:05.944Z,92.10
2017-11-29T22:56:33.513Z,92.00
2017-11-29T22:59:01.083Z,92.00
2017-11-29T23:01:29.438Z,92.40
2017-11-29T23:03:57.009Z,92.40
2017-11-29T23:06:25.335Z,92.40
2017-11-29T23:08:52.896Z,92.40
2017-11-29T23:11:20.453Z,92.50
2017-11-29T23:13:48.774Z,92.50
2017-11-29T23:16:16.340Z,92.50
2017-11-29T23:18:44.690Z,92.40
2017-11-29T23:21:12.241Z,92.40
2017-11-29T23:23:39.840Z,92.60
2017-11-29T23:26:07.402Z,92.70
2017-11-29T23:28:34.969Z,92.60
2017-11-29T23:31:02.555Z,92.70
2017-11-29T23:33:30.171Z,92.60
2017-11-29T23:35:58.530Z,92.90
2017-11-29T23:38:26.114Z,92.90
2017-11-29T23:40:54.434Z,92.80
2017-11-29T23:43:22.002Z,92.80
2017-11-29T23:45:50.342Z,93.00
2017-11-29T23:48:17.891Z,93.00
2017-11-29T23:50:45.469Z,92.90
2017-11-29T23:53:13.053Z,93.30
2017-11-29T23:55:40.613Z,93.00
2017-11-29T23:58:08.181Z,93.20
